createdAt,value
2023-12-08T00:02:30.466Z,67.67
2023-12-08T00:05:01.003Z,66.38
2023-12-08T00:07:30.537Z,66.76
2023-12-08T00:10:01.661Z,66.44
2023-12-08T00:12:30.964Z,64.75
2023-12-08T00:15:01.012Z,65.31
2023-12-08T00:17:33.023Z,65.98
2023-12-08T00:20:02.200Z,66.15
2023-12-08T00:22:30.912Z,65.25
2023-12-08T00:25:02.576Z,66.22
2023-12-08T00:27:33.967Z,66.74
2023-12-08T00:30:04.877Z,67.08
2023-12-08T00:32:39.526Z,65.09
2023-12-08T00:35:25.575Z,64.48
2023-12-08T00:37:55.063Z,64.41
2023-12-08T00:40:28.302Z,64.82
2023-12-08T00:43:06.673Z,65.43
2023-12-08T00:45:34.523Z,64.57
2023-12-08T00:48:10.373Z,63.98
2023-12-08T00:50:43.379Z,64.01
2023-12-08T00:53:14.709Z,64.23
2023-12-08T00:55:46.120Z,64.57
2023-12-08T00:58:16.560Z,64.34
2023-12-08T01:00:47.638Z,64.10
2023-12-08T01:03:17.595Z,64.03
2023-12-08T01:05:46.726Z,64.06
2023-12-08T01:08:14.912Z,63.31
2023-12-08T01:10:51.185Z,64.21
2023-12-08T01:13:21.682Z,63.62
2023-12-08T01:15:50.584Z,64.24
2023-12-08T01:18:24.545Z,63.48
2023-12-08T01:20:57.580Z,63.74
2023-12-08T01:23:29.700Z,62.73
2023-12-08T01:25:58.915Z,62.83
2023-12-08T01:28:34.575Z,62.79
2023-12-08T01:31:05.452Z,63.57
2023-12-08T01:33:39.344Z,63.22
2023-12-08T01:36:38.692Z,63.33
2023-12-08T01:38:58.710Z,63.11
2023-12-08T01:41:27.463Z,62.03
2023-12-08T01:43:58.670Z,62.25
2023-12-08T01:46:27.766Z,62.93
2023-12-08T01:48:58.182Z,62.04
2023-12-08T01:51:27.030Z,62.94
2023-12-08T01:53:58.682Z,63.40
2023-12-08T01:56:30.457Z,62.64
2023-12-08T01:58:59.045Z,62.41
2023-12-08T02:01:28.627Z,63.28
2023-12-08T02:04:00.206Z,62.31
2023-12-08T02:06:32.488Z,62.12
2023-12-08T02:09:02.577Z,62.68
2023-12-08T02:11:31.273Z,61.15
2023-12-08T02:14:00.466Z,61.86
2023-12-08T02:16:37.029Z,62.00
2023-12-08T02:19:09.681Z,62.02
2023-12-08T02:21:40.465Z,62.34
2023-12-08T02:24:10.306Z,61.76
2023-12-08T02:26:39.081Z,62.22
2023-12-08T02:29:10.667Z,61.23
2023-12-08T02:31:49.226Z,61.16
2023-12-08T02:34:18.552Z,61.19
2023-12-08T02:36:49.620Z,61.21
2023-12-08T02:39:24.415Z,61.60
2023-12-08T02:41:53.275Z,61.59
2023-12-08T02:44:23.925Z,61.48
2023-12-08T02:46:58.601Z,60.21
2023-12-08T02:49:29.637Z,61.15
2023-12-08T02:52:00.975Z,61.05
2023-12-08T02:54:31.054Z,60.53
2023-12-08T02:57:03.449Z,59.86
2023-12-08T02:59:31.432Z,60.83
2023-12-08T03:02:01.011Z,59.91
2023-12-08T03:04:32.725Z,61.06
2023-12-08T03:07:01.241Z,60.66
2023-12-08T03:09:34.843Z,60.62
2023-12-08T03:12:03.046Z,60.66
2023-12-08T03:14:32.196Z,60.29
2023-12-08T03:17:01.865Z,60.07
2023-12-08T03:19:31.658Z,60.67
2023-12-08T03:22:00.236Z,60.74
2023-12-08T03:24:28.558Z,60.49
2023-12-08T03:26:59.644Z,59.37
2023-12-08T03:29:30.067Z,59.64
2023-12-08T03:32:00.601Z,60.29
2023-12-08T03:34:34.764Z,59.77
2023-12-08T03:37:06.616Z,60.83
2023-12-08T03:39:38.848Z,59.71
2023-12-08T03:42:14.029Z,59.37
2023-12-08T03:44:44.848Z,60.32
2023-12-08T03:47:14.555Z,61.71
2023-12-08T03:49:44.714Z,60.72
2023-12-08T03:52:15.110Z,61.44
2023-12-08T03:54:43.680Z,61.46
2023-12-08T03:57:19.584Z,61.27
2023-12-08T03:59:48.529Z,61.30
2023-12-08T04:02:21.528Z,61.33
2023-12-08T04:04:54.467Z,61.70
2023-12-08T04:07:27.789Z,61.14
2023-12-08T04:09:56.096Z,60.47
2023-12-08T04:12:26.579Z,60.25
2023-12-08T04:14:57.645Z,61.56
2023-12-08T04:17:26.092Z,60.35
2023-12-08T04:19:58.017Z,61.18
2023-12-08T04:22:29.909Z,61.32
2023-12-08T04:24:57.865Z,60.97
2023-12-08T04:27:27.688Z,60.25
2023-12-08T04:29:59.406Z,61.23
2023-12-08T04:32:30.859Z,60.44
2023-12-08T04:34:59.958Z,59.45
2023-12-08T04:37:29.442Z,60.46
2023-12-08T04:39:59.442Z,59.47
2023-12-08T04:42:29.307Z,61.38
2023-12-08T04:44:59.845Z,60.85
2023-12-08T04:47:28.675Z,61.47
2023-12-08T04:50:03.610Z,61.91
2023-12-08T04:52:36.191Z,61.93
2023-12-08T04:55:07.118Z,63.67
2023-12-08T04:57:36.953Z,63.89
2023-12-08T05:00:06.825Z,64.10
2023-12-08T05:02:38.993Z,64.83
2023-12-08T05:05:07.565Z,65.84
2023-12-08T05:07:35.581Z,65.63
2023-12-08T05:10:07.806Z,65.70
2023-12-08T05:12:37.697Z,66.14
2023-12-08T05:15:11.728Z,66.26
2023-12-08T05:17:39.664Z,66.06
2023-12-08T05:20:10.792Z,65.60
2023-12-08T05:22:41.274Z,65.61
2023-12-08T05:25:14.012Z,65.58
2023-12-08T05:27:48.516Z,65.37
2023-12-08T05:30:20.169Z,67.95
2023-12-08T05:32:54.820Z,67.53
2023-12-08T05:35:22.885Z,66.48
2023-12-08T05:37:51.865Z,66.86
2023-12-08T05:40:21.439Z,67.54
2023-12-08T05:42:52.038Z,67.15
2023-12-08T05:45:22.797Z,66.94
2023-12-08T05:47:53.532Z,66.28
2023-12-08T05:50:30.100Z,67.05
2023-12-08T05:52:58.227Z,66.82
2023-12-08T05:55:26.640Z,67.24
2023-12-08T05:57:57.481Z,67.95
2023-12-08T06:00:27.273Z,67.78
2023-12-08T06:02:56.955Z,67.29
2023-12-08T06:05:25.075Z,68.85
2023-12-08T06:07:55.247Z,68.37
2023-12-08T06:10:25.271Z,67.33
2023-12-08T06:12:55.036Z,68.19
2023-12-08T06:15:23.458Z,67.51
2023-12-08T06:17:55.019Z,67.17
2023-12-08T06:20:26.640Z,68.15
2023-12-08T06:22:58.699Z,68.08
2023-12-08T06:25:27.762Z,67.31
2023-12-08T06:27:59.800Z,69.36
2023-12-08T06:30:34.984Z,70.29
2023-12-08T06:33:05.073Z,70.07
2023-12-08T06:35:33.360Z,71.09
2023-12-08T06:38:03.358Z,70.95
2023-12-08T06:40:33.070Z,73.03
2023-12-08T06:43:04.428Z,71.52
2023-12-08T06:45:36.324Z,72.16
2023-12-08T06:48:09.380Z,71.73
2023-12-08T06:50:41.155Z,71.57
2023-12-08T06:53:09.793Z,72.40
2023-12-08T06:55:37.741Z,72.84
2023-12-08T06:58:09.337Z,72.12
2023-12-08T07:00:38.549Z,72.42
2023-12-08T07:03:07.700Z,71.63
2023-12-08T07:05:37.319Z,71.50
2023-12-08T07:08:06.153Z,71.11
2023-12-08T07:10:37.157Z,70.68
2023-12-08T07:13:08.259Z,72.21
2023-12-08T07:15:37.505Z,72.59
2023-12-08T07:18:14.924Z,73.86
2023-12-08T07:20:43.210Z,73.89
2023-12-08T07:23:12.450Z,72.60
2023-12-08T07:25:44.367Z,72.75
2023-12-08T07:28:17.049Z,72.14
2023-12-08T07:30:45.033Z,73.62
2023-12-08T07:33:16.369Z,71.82
2023-12-08T07:35:46.182Z,72.97
2023-12-08T07:38:19.325Z,72.51
2023-12-08T07:40:49.663Z,73.77
2023-12-08T07:43:23.914Z,72.36
2023-12-08T07:45:55.242Z,71.81
2023-12-08T07:48:23.702Z,72.03
2023-12-08T07:50:53.201Z,71.75
2023-12-08T07:53:21.928Z,70.58
2023-12-08T07:55:58.588Z,69.95
2023-12-08T07:58:28.356Z,71.15
2023-12-08T08:01:11.778Z,70.37
2023-12-08T08:03:43.916Z,71.04
2023-12-08T08:06:13.172Z,70.85
2023-12-08T08:08:41.072Z,71.95
2023-12-08T08:11:10.772Z,70.61
2023-12-08T08:13:43.314Z,70.94
2023-12-08T08:16:11.569Z,71.11
2023-12-08T08:18:43.394Z,71.08
2023-12-08T08:21:11.921Z,71.36
2023-12-08T08:26:28.537Z,70.63
2023-12-08T08:28:58.483Z,70.88
2023-12-08T08:31:27.508Z,69.63
2023-12-08T08:33:59.088Z,69.93
2023-12-08T08:36:27.865Z,71.43
2023-12-08T08:38:55.959Z,71.19
2023-12-08T08:41:28.043Z,71.59
2023-12-08T08:44:01.239Z,72.22
2023-12-08T08:46:30.723Z,70.97
2023-12-08T08:48:59.243Z,70.70
2023-12-08T08:51:29.073Z,70.95
2023-12-08T08:53:57.390Z,71.47
2023-12-08T08:56:25.870Z,71.32
2023-12-08T08:58:56.042Z,71.09
2023-12-08T09:01:26.121Z,71.14
2023-12-08T09:03:54.584Z,70.59
2023-12-08T09:06:26.172Z,71.59
2023-12-08T09:08:56.106Z,71.42
2023-12-08T09:11:28.615Z,71.19
2023-12-08T09:13:58.153Z,71.68
2023-12-08T09:16:32.747Z,71.45
2023-12-08T09:19:02.976Z,72.29
2023-12-08T09:21:42.378Z,71.02
2023-12-08T09:24:17.490Z,71.70
2023-12-08T09:26:45.602Z,71.49
2023-12-08T09:29:13.669Z,70.48
2023-12-08T09:31:48.198Z,71.21
2023-12-08T09:34:18.308Z,71.67
2023-12-08T09:37:24.622Z,70.91
2023-12-08T09:39:42.398Z,71.03
2023-12-08T09:42:20.019Z,70.76
2023-12-08T09:44:50.612Z,70.70
2023-12-08T09:47:29.236Z,69.17
2023-12-08T09:49:58.257Z,70.55
2023-12-08T09:52:27.341Z,70.76
2023-12-08T09:54:59.369Z,70.49
2023-12-08T09:57:32.621Z,69.52
2023-12-08T10:00:02.525Z,69.67
2023-12-08T10:02:33.823Z,69.94
2023-12-08T10:05:02.566Z,69.54
2023-12-08T10:07:38.638Z,69.50
2023-12-08T10:10:11.334Z,68.48
2023-12-08T10:12:42.489Z,69.14
2023-12-08T10:15:12.530Z,69.64
2023-12-08T10:17:58.420Z,68.52
2023-12-08T10:20:26.879Z,68.92
2023-12-08T10:22:59.769Z,69.60
2023-12-08T10:25:30.611Z,68.91
2023-12-08T10:27:59.213Z,69.28
2023-12-08T10:30:28.782Z,69.85
2023-12-08T10:33:03.214Z,68.22
2023-12-08T10:35:36.163Z,69.18
2023-12-08T10:38:09.156Z,68.87
2023-12-08T10:40:42.848Z,68.84
2023-12-08T10:43:16.954Z,68.60
2023-12-08T10:45:46.914Z,69.12
2023-12-08T10:48:20.360Z,68.67
2023-12-08T10:50:53.002Z,68.28
2023-12-08T10:53:24.403Z,68.69
2023-12-08T10:56:02.976Z,69.31
2023-12-08T10:58:36.712Z,69.48
2023-12-08T11:01:15.289Z,69.35
2023-12-08T11:03:54.245Z,69.39
2023-12-08T11:06:35.236Z,69.39
2023-12-08T11:09:11.112Z,69.77
2023-12-08T11:11:52.713Z,69.84
2023-12-08T11:14:39.378Z,69.42
2023-12-08T11:17:16.613Z,68.94
2023-12-08T11:19:49.879Z,68.46
2023-12-08T11:22:20.462Z,69.37
2023-12-08T11:24:52.192Z,69.81
2023-12-08T11:27:32.611Z,69.98
2023-12-08T11:30:09.800Z,70.24
2023-12-08T11:32:46.777Z,70.03
2023-12-08T11:35:20.559Z,70.21
2023-12-08T11:37:49.365Z,70.40
2023-12-08T11:40:20.772Z,71.09
2023-12-08T11:42:52.834Z,71.17
2023-12-08T11:45:22.267Z,70.43
2023-12-08T11:47:53.952Z,69.26
2023-12-08T11:50:26.427Z,71.33
2023-12-08T11:52:54.725Z,70.69
2023-12-08T11:55:31.080Z,69.93
2023-12-08T11:58:12.862Z,70.92
2023-12-08T12:00:48.786Z,71.46
2023-12-08T12:03:22.961Z,70.50
2023-12-08T12:05:53.631Z,71.84
2023-12-08T12:08:27.563Z,71.42
2023-12-08T12:11:01.649Z,71.92
2023-12-08T12:13:37.509Z,69.95
2023-12-08T12:16:10.466Z,70.74
2023-12-08T12:18:39.939Z,72.53
2023-12-08T12:21:12.468Z,70.77
2023-12-08T12:23:41.546Z,71.06
2023-12-08T12:26:14.730Z,71.38
2023-12-08T12:28:44.711Z,71.39
2023-12-08T12:31:18.716Z,72.16
2023-12-08T12:33:50.126Z,71.57
2023-12-08T12:36:20.258Z,73.91
2023-12-08T12:38:49.227Z,72.51
2023-12-08T12:41:27.626Z,71.46
2023-12-08T12:44:00.201Z,71.58
2023-12-08T12:46:29.944Z,71.27
2023-12-08T12:48:59.710Z,71.08
2023-12-08T12:51:38.948Z,72.09
2023-12-08T12:54:07.887Z,71.99
2023-12-08T12:56:39.911Z,70.84
2023-12-08T12:59:10.115Z,71.85
2023-12-08T13:01:47.620Z,71.13
2023-12-08T13:04:17.856Z,69.42
2023-12-08T13:06:48.786Z,69.55
2023-12-08T13:09:33.641Z,72.12
2023-12-08T13:12:03.122Z,71.53
2023-12-08T13:14:39.857Z,72.24
2023-12-08T13:17:17.816Z,72.43
2023-12-08T13:19:47.290Z,73.42
2023-12-08T13:22:17.266Z,72.71
2023-12-08T13:24:48.958Z,72.76
2023-12-08T13:27:18.290Z,69.60
2023-12-08T13:29:53.281Z,72.51
2023-12-08T13:32:21.885Z,73.93
2023-12-08T13:34:51.162Z,74.14
2023-12-08T13:37:25.072Z,72.94
2023-12-08T13:39:59.234Z,69.99
2023-12-08T13:42:27.341Z,73.73
2023-12-08T13:44:57.015Z,74.11
2023-12-08T13:47:26.286Z,72.85
2023-12-08T13:49:56.065Z,72.40
2023-12-08T13:52:25.814Z,73.41
2023-12-08T13:54:55.222Z,74.66
2023-12-08T13:57:26.192Z,74.07
2023-12-08T14:00:00.940Z,73.32
2023-12-08T14:02:37.336Z,73.92
2023-12-08T14:05:09.143Z,74.11
2023-12-08T14:07:42.479Z,71.69
2023-12-08T14:10:16.725Z,72.95
2023-12-08T14:12:53.680Z,72.65
2023-12-08T14:15:23.463Z,72.67
2023-12-08T14:17:53.850Z,73.87
2023-12-08T14:20:22.512Z,73.08
2023-12-08T14:22:56.340Z,74.14
2023-12-08T14:25:29.289Z,72.95
2023-12-08T14:27:57.667Z,73.29
2023-12-08T14:30:31.823Z,73.27
2023-12-08T14:33:00.949Z,74.98
2023-12-08T14:35:32.122Z,74.82
2023-12-08T14:38:03.518Z,74.88
2023-12-08T14:40:34.197Z,73.43
2023-12-08T14:43:04.301Z,73.94
2023-12-08T14:45:36.604Z,73.58
2023-12-08T14:48:14.106Z,74.04
2023-12-08T14:50:47.904Z,75.63
2023-12-08T14:53:20.331Z,73.67
2023-12-08T14:55:59.058Z,70.85
2023-12-08T14:58:30.298Z,74.83
2023-12-08T15:01:01.054Z,74.26
2023-12-08T15:03:29.853Z,72.41
2023-12-08T15:06:00.637Z,75.04
2023-12-08T15:08:30.815Z,74.13
2023-12-08T15:11:01.676Z,74.54
2023-12-08T15:13:30.535Z,74.26
2023-12-08T15:16:01.705Z,74.42
2023-12-08T15:18:32.970Z,74.49
2023-12-08T15:21:01.670Z,74.55
2023-12-08T15:23:40.322Z,74.92
2023-12-08T15:26:10.057Z,70.96
2023-12-08T15:28:42.187Z,73.59
2023-12-08T15:31:14.794Z,72.21
2023-12-08T15:33:46.206Z,72.58
2023-12-08T15:36:15.354Z,70.28
2023-12-08T15:38:46.287Z,71.34
2023-12-08T15:41:18.876Z,73.62
2023-12-08T15:43:48.890Z,73.20
2023-12-08T15:46:24.286Z,70.88
2023-12-08T15:49:14.634Z,72.32
2023-12-08T15:51:43.864Z,74.49
2023-12-08T15:54:18.513Z,71.47
2023-12-08T15:56:51.727Z,72.30
2023-12-08T15:59:20.457Z,73.11
2023-12-08T16:01:48.982Z,72.54
2023-12-08T16:04:27.188Z,72.77
2023-12-08T16:07:01.156Z,72.38
2023-12-08T16:09:31.419Z,71.77
2023-12-08T16:11:59.655Z,72.12
2023-12-08T16:14:30.241Z,71.82
2023-12-08T16:17:02.573Z,72.33
2023-12-08T16:19:32.191Z,72.65
2023-12-08T16:22:01.966Z,71.65
2023-12-08T16:24:32.959Z,72.38
2023-12-08T16:27:02.465Z,71.64
2023-12-08T16:29:30.890Z,71.73
2023-12-08T16:31:59.557Z,72.14
2023-12-08T16:34:31.670Z,71.45
2023-12-08T16:37:00.776Z,71.66
2023-12-08T16:39:31.277Z,71.24
2023-12-08T16:42:00.584Z,72.13
2023-12-08T16:44:31.494Z,71.79
2023-12-08T16:47:00.219Z,70.50
2023-12-08T16:49:30.054Z,70.63
2023-12-08T16:52:03.879Z,71.40
2023-12-08T16:54:35.288Z,71.09
2023-12-08T16:57:04.648Z,71.44
2023-12-08T16:59:34.989Z,71.23
2023-12-08T17:02:03.129Z,71.99
2023-12-08T17:04:32.612Z,68.82
2023-12-08T17:07:01.379Z,72.87
2023-12-08T17:09:32.159Z,72.71
2023-12-08T17:12:11.400Z,70.62
2023-12-08T17:14:39.655Z,70.84
2023-12-08T17:17:12.163Z,72.05
2023-12-08T17:19:43.241Z,71.33
2023-12-08T17:22:12.454Z,71.96
2023-12-08T17:24:43.021Z,71.39
2023-12-08T17:27:15.707Z,70.67
2023-12-08T17:29:49.715Z,70.79
2023-12-08T17:32:18.180Z,71.17
2023-12-08T17:34:46.466Z,72.25
2023-12-08T17:37:15.692Z,72.78
2023-12-08T17:39:48.665Z,73.29
2023-12-08T17:42:19.486Z,71.08
2023-12-08T17:44:47.640Z,73.15
2023-12-08T17:47:15.809Z,72.19
2023-12-08T17:49:47.984Z,72.28
2023-12-08T17:52:22.011Z,71.92
2023-12-08T17:54:53.937Z,71.84
2023-12-08T17:57:25.040Z,71.43
2023-12-08T17:59:53.586Z,73.80
2023-12-08T18:02:26.570Z,74.74
2023-12-08T18:04:54.673Z,74.06
2023-12-08T18:07:22.671Z,74.44
2023-12-08T18:09:52.099Z,74.57
2023-12-08T18:12:21.922Z,73.52
2023-12-08T18:14:53.951Z,73.70
2023-12-08T18:17:23.416Z,74.33
2023-12-08T18:19:57.043Z,73.90
2023-12-08T18:22:28.326Z,73.40
2023-12-08T18:25:01.095Z,73.31
2023-12-08T18:27:48.863Z,73.06
2023-12-08T18:30:30.571Z,72.98
2023-12-08T18:33:03.114Z,73.21
2023-12-08T18:35:31.363Z,73.94
2023-12-08T18:37:59.218Z,73.70
2023-12-08T18:40:33.628Z,74.54
2023-12-08T18:43:02.470Z,73.47
2023-12-08T18:45:33.585Z,72.86
2023-12-08T18:48:01.772Z,74.45
2023-12-08T18:50:31.125Z,72.94
2023-12-08T18:53:00.577Z,73.36
2023-12-08T18:55:37.885Z,73.53
2023-12-08T18:58:08.822Z,75.90
2023-12-08T19:00:40.164Z,74.25
2023-12-08T19:03:09.433Z,73.03
2023-12-08T19:05:43.305Z,73.64
2023-12-08T19:08:11.652Z,73.91
2023-12-08T19:10:40.299Z,72.60
2023-12-08T19:13:18.708Z,73.68
2023-12-08T19:15:56.824Z,73.88
2023-12-08T19:18:25.230Z,74.19
2023-12-08T19:20:54.022Z,74.46
2023-12-08T19:23:26.802Z,72.89
2023-12-08T19:25:58.680Z,72.02
2023-12-08T19:28:29.586Z,73.57
2023-12-08T19:30:59.632Z,73.93
2023-12-08T19:33:33.721Z,73.94
2023-12-08T19:36:05.279Z,74.25
2023-12-08T19:38:38.048Z,74.36
2023-12-08T19:41:08.744Z,75.13
2023-12-08T19:43:36.637Z,71.75
2023-12-08T19:46:12.637Z,71.11
2023-12-08T19:48:43.474Z,73.94
2023-12-08T19:51:11.654Z,73.25
2023-12-08T19:53:44.725Z,74.33
2023-12-08T19:56:15.527Z,75.42
2023-12-08T19:58:44.101Z,72.91
2023-12-08T20:01:16.024Z,73.16
2023-12-08T20:03:44.429Z,72.32
2023-12-08T20:06:13.730Z,73.93
2023-12-08T20:11:31.504Z,73.96
2023-12-08T20:14:03.357Z,72.62
2023-12-08T20:16:45.390Z,70.84
2023-12-08T20:19:16.783Z,72.84
2023-12-08T20:21:52.457Z,71.90
2023-12-08T20:24:23.466Z,72.44
2023-12-08T20:26:52.665Z,72.19
2023-12-08T20:29:24.514Z,73.97
2023-12-08T20:31:54.780Z,73.51
2023-12-08T20:34:27.096Z,72.93
2023-12-08T20:36:56.318Z,73.70
2023-12-08T20:39:27.189Z,73.73
2023-12-08T20:41:56.380Z,73.62
2023-12-08T20:44:27.323Z,72.81
2023-12-08T20:46:58.295Z,73.37
2023-12-08T20:49:27.951Z,72.64
2023-12-08T20:52:03.379Z,75.05
2023-12-08T20:54:33.698Z,74.12
2023-12-08T20:57:03.192Z,74.59
2023-12-08T20:59:33.702Z,74.34
2023-12-08T21:02:07.835Z,73.69
2023-12-08T21:04:36.678Z,74.90
2023-12-08T21:07:09.549Z,74.16
2023-12-08T21:09:37.969Z,74.05
2023-12-08T21:12:06.293Z,73.67
2023-12-08T21:14:38.752Z,74.01
2023-12-08T21:17:09.650Z,73.68
2023-12-08T21:19:38.805Z,73.27
2023-12-08T21:22:08.693Z,72.94
2023-12-08T21:24:40.678Z,73.38
2023-12-08T21:27:14.738Z,73.24
2023-12-08T21:29:44.957Z,72.83
2023-12-08T21:32:15.919Z,73.15
2023-12-08T21:34:46.713Z,73.48
2023-12-08T21:37:19.470Z,73.77
2023-12-08T21:39:48.455Z,73.15
2023-12-08T21:42:17.243Z,73.09
2023-12-08T21:44:49.397Z,73.58
2023-12-08T21:47:18.942Z,73.09
2023-12-08T21:49:47.171Z,73.28
2023-12-08T21:52:21.008Z,72.67
2023-12-08T21:55:05.203Z,72.09
2023-12-08T21:57:34.547Z,72.31
2023-12-08T22:00:05.910Z,72.41
2023-12-08T22:02:39.945Z,71.32
2023-12-08T22:05:11.312Z,71.30
2023-12-08T22:07:46.876Z,72.96
2023-12-08T22:10:15.689Z,72.84
2023-12-08T22:12:47.347Z,70.95
2023-12-08T22:15:23.791Z,72.64
2023-12-08T22:17:57.247Z,73.64
2023-12-08T22:20:40.950Z,72.64
2023-12-08T22:23:09.242Z,72.77
2023-12-08T22:25:37.908Z,75.24
2023-12-08T22:28:06.852Z,73.50
2023-12-08T22:30:37.680Z,73.89
2023-12-08T22:33:10.283Z,74.44
2023-12-08T22:35:43.425Z,74.42
2023-12-08T22:38:13.707Z,74.02
2023-12-08T22:40:42.957Z,74.63
2023-12-08T22:43:16.264Z,73.92
2023-12-08T22:45:48.764Z,73.59
2023-12-08T22:48:28.057Z,73.99
2023-12-08T22:51:07.224Z,74.57
2023-12-08T22:53:40.856Z,74.06
2023-12-08T22:56:26.761Z,73.92
2023-12-08T22:58:55.711Z,73.57
2023-12-08T23:01:25.823Z,73.68
2023-12-08T23:04:02.454Z,73.24
2023-12-08T23:06:39.853Z,73.74
2023-12-08T23:09:09.711Z,73.10
2023-12-08T23:11:40.599Z,72.44
2023-12-08T23:14:12.700Z,72.95
2023-12-08T23:16:41.497Z,74.19
2023-12-08T23:19:12.852Z,73.54
2023-12-08T23:21:41.651Z,73.59
2023-12-08T23:24:10.244Z,74.04
2023-12-08T23:26:41.990Z,73.25
2023-12-08T23:29:10.234Z,73.37
2023-12-08T23:31:39.138Z,73.85
2023-12-08T23:34:07.635Z,72.18
2023-12-08T23:36:37.365Z,73.25
2023-12-08T23:39:08.762Z,73.48
2023-12-08T23:41:40.260Z,72.79
2023-12-08T23:44:08.715Z,71.84
2023-12-08T23:46:37.029Z,72.16
2023-12-08T23:49:08.391Z,74.92
2023-12-08T23:51:40.381Z,74.13
2023-12-08T23:54:09.194Z,73.72
2023-12-08T23:56:37.213Z,73.81
2023-12-08T23:59:07.717Z,71.22
